sensor_id;sensor_type;location;lat;lon;timestamp;temperature;humidity
11989;DHT22;6054;50.966;7.094;2022-09-28T00:00:38;17.30;56.40
11989;DHT22;6054;50.966;7.094;2022-09-28T00:03:06;17.20;56.50
11989;DHT22;6054;50.966;7.094;2022-09-28T00:05:33;17.20;56.50
11989;DHT22;6054;50.966;7.094;2022-09-28T00:08:00;17.20;56.40
11989;DHT22;6054;50.966;7.094;2022-09-28T00:10:27;17.20;56.40
11989;DHT22;6054;50.966;7.094;2022-09-28T00:12:54;17.20;56.10
11989;DHT22;6054;50.966;7.094;2022-09-28T00:15:22;17.20;56.30
11989;DHT22;6054;50.966;7.094;2022-09-28T00:17:49;17.30;56.60
11989;DHT22;6054;50.966;7.094;2022-09-28T00:20:16;17.20;56.40
11989;DHT22;6054;50.966;7.094;2022-09-28T00:22:44;17.20;56.10
11989;DHT22;6054;50.966;7.094;2022-09-28T00:25:10;17.20;56.30
11989;DHT22;6054;50.966;7.094;2022-09-28T00:27:37;17.20;56.00
11989;DHT22;6054;50.966;7.094;2022-09-28T00:30:05;17.20;56.20
11989;DHT22;6054;50.966;7.094;2022-09-28T00:32:34;17.20;56.60
11989;DHT22;6054;50.966;7.094;2022-09-28T00:35:00;17.40;56.60
11989;DHT22;6054;50.966;7.094;2022-09-28T00:37:27;17.20;56.60
11989;DHT22;6054;50.966;7.094;2022-09-28T00:39:54;17.20;56.60
11989;DHT22;6054;50.966;7.094;2022-09-28T00:42:23;17.20;56.50
11989;DHT22;6054;50.966;7.094;2022-09-28T00:44:50;17.20;56.90
11989;DHT22;6054;50.966;7.094;2022-09-28T00:47:27;17.20;57.00
11989;DHT22;6054;50.966;7.094;2022-09-28T00:50:01;17.20;57.00
11989;DHT22;6054;50.966;7.094;2022-09-28T00:52:33;17.30;57.00
11989;DHT22;6054;50.966;7.094;2022-09-28T00:55:03;17.20;56.80
11989;DHT22;6054;50.966;7.094;2022-09-28T00:57:31;17.20;56.80
11989;DHT22;6054;50.966;7.094;2022-09-28T00:59:59;17.20;56.50
11989;DHT22;6054;50.966;7.094;2022-09-28T01:02:27;17.20;56.60
11989;DHT22;6054;50.966;7.094;2022-09-28T01:04:55;17.20;56.40
11989;DHT22;6054;50.966;7.094;2022-09-28T01:07:24;17.10;56.50
11989;DHT22;6054;50.966;7.094;2022-09-28T01:09:51;17.10;56.20
11989;DHT22;6054;50.966;7.094;2022-09-28T01:12:19;17.10;56.70
11989;DHT22;6054;50.966;7.094;2022-09-28T01:14:46;17.10;56.40
11989;DHT22;6054;50.966;7.094;2022-09-28T01:17:15;17.10;57.30
11989;DHT22;6054;50.966;7.094;2022-09-28T01:20:03;17.10;56.70
11989;DHT22;6054;50.966;7.094;2022-09-28T01:22:52;17.10;56.60
11989;DHT22;6054;50.966;7.094;2022-09-28T01:25:26;17.10;56.60
11989;DHT22;6054;50.966;7.094;2022-09-28T01:27:58;17.10;56.60
11989;DHT22;6054;50.966;7.094;2022-09-28T01:30:32;17.10;56.80
11989;DHT22;6054;50.966;7.094;2022-09-28T01:33:04;17.10;56.70
11989;DHT22;6054;50.966;7.094;2022-09-28T01:35:36;17.10;56.60
11989;DHT22;6054;50.966;7.094;2022-09-28T01:38:08;17.00;56.60
11989;DHT22;6054;50.966;7.094;2022-09-28T01:40:39;17.00;56.60
11989;DHT22;6054;50.966;7.094;2022-09-28T01:43:10;17.10;56.80
11989;DHT22;6054;50.966;7.094;2022-09-28T01:45:42;17.00;56.70
11989;DHT22;6054;50.966;7.094;2022-09-28T01:48:12;17.00;56.70
11989;DHT22;6054;50.966;7.094;2022-09-28T07:18:56;16.80;57.60
11989;DHT22;6054;50.966;7.094;2022-09-28T07:21:23;17.10;55.40
11989;DHT22;6054;50.966;7.094;2022-09-28T07:23:49;17.10;55.80
11989;DHT22;6054;50.966;7.094;2022-09-28T07:26:17;16.90;56.80
11989;DHT22;6054;50.966;7.094;2022-09-28T07:28:44;16.90;56.70
11989;DHT22;6054;50.966;7.094;2022-09-28T07:31:11;16.90;56.60
11989;DHT22;6054;50.966;7.094;2022-09-28T07:33:38;16.90;56.80
11989;DHT22;6054;50.966;7.094;2022-09-28T07:36:06;16.90;56.90
11989;DHT22;6054;50.966;7.094;2022-09-28T07:38:33;16.90;54.50
11989;DHT22;6054;50.966;7.094;2022-09-28T07:41:00;17.00;55.60
11989;DHT22;6054;50.966;7.094;2022-09-28T07:51:28;17.00;57.20
11989;DHT22;6054;50.966;7.094;2022-09-28T07:53:55;17.00;56.40
11989;DHT22;6054;50.966;7.094;2022-09-28T07:56:22;17.00;56.40
11989;DHT22;6054;50.966;7.094;2022-09-28T07:58:50;17.00;56.40
11989;DHT22;6054;50.966;7.094;2022-09-28T08:01:17;17.00;56.60
11989;DHT22;6054;50.966;7.094;2022-09-28T08:03:44;17.10;57.00
11989;DHT22;6054;50.966;7.094;2022-09-28T08:06:14;17.10;57.20
11989;DHT22;6054;50.966;7.094;2022-09-28T08:08:43;17.20;57.90
11989;DHT22;6054;50.966;7.094;2022-09-28T08:11:11;17.30;57.80
11989;DHT22;6054;50.966;7.094;2022-09-28T08:13:38;17.30;57.70
11989;DHT22;6054;50.966;7.094;2022-09-28T08:16:05;17.40;57.10
11989;DHT22;6054;50.966;7.094;2022-09-28T08:18:33;17.40;57.10
11989;DHT22;6054;50.966;7.094;2022-09-28T08:21:01;17.40;56.60
11989;DHT22;6054;50.966;7.094;2022-09-28T08:23:47;17.40;56.70
11989;DHT22;6054;50.966;7.094;2022-09-28T08:26:13;17.40;55.90
11989;DHT22;6054;50.966;7.094;2022-09-28T08:28:41;17.50;55.50
11989;DHT22;6054;50.966;7.094;2022-09-28T08:31:09;17.40;56.00
11989;DHT22;6054;50.966;7.094;2022-09-28T08:33:36;17.40;55.60
11989;DHT22;6054;50.966;7.094;2022-09-28T08:36:03;17.40;55.70
11989;DHT22;6054;50.966;7.094;2022-09-28T08:38:31;17.50;56.10
11989;DHT22;6054;50.966;7.094;2022-09-28T08:41:10;17.50;55.50
11989;DHT22;6054;50.966;7.094;2022-09-28T08:43:47;17.50;56.10
11989;DHT22;6054;50.966;7.094;2022-09-28T08:46:19;17.50;56.10
11989;DHT22;6054;50.966;7.094;2022-09-28T08:48:52;17.50;56.00
11989;DHT22;6054;50.966;7.094;2022-09-28T08:51:22;17.50;56.00
11989;DHT22;6054;50.966;7.094;2022-09-28T08:53:54;17.60;56.20
11989;DHT22;6054;50.966;7.094;2022-09-28T08:56:30;17.60;56.30
11989;DHT22;6054;50.966;7.094;2022-09-28T08:59:08;17.60;56.30
11989;DHT22;6054;50.966;7.094;2022-09-28T09:01:39;17.60;56.10
11989;DHT22;6054;50.966;7.094;2022-09-28T09:04:07;17.60;55.90
11989;DHT22;6054;50.966;7.094;2022-09-28T09:06:53;17.60;55.80
11989;DHT22;6054;50.966;7.094;2022-09-28T09:09:29;17.60;55.70
11989;DHT22;6054;50.966;7.094;2022-09-28T09:12:06;17.60;55.70
11989;DHT22;6054;50.966;7.094;2022-09-28T09:14:53;17.60;55.70
11989;DHT22;6054;50.966;7.094;2022-09-28T09:17:35;17.60;55.90
11989;DHT22;6054;50.966;7.094;2022-09-28T09:20:13;17.60;56.00
11989;DHT22;6054;50.966;7.094;2022-09-28T09:22:56;17.60;56.10
11989;DHT22;6054;50.966;7.094;2022-09-28T09:25:26;17.60;56.20
11989;DHT22;6054;50.966;7.094;2022-09-28T09:28:17;17.70;56.10
11989;DHT22;6054;50.966;7.094;2022-09-28T09:30:53;17.60;56.30
11989;DHT22;6054;50.966;7.094;2022-09-28T09:33:46;17.70;56.30
11989;DHT22;6054;50.966;7.094;2022-09-28T09:36:26;17.70;56.50
11989;DHT22;6054;50.966;7.094;2022-09-28T09:39:10;17.70;57.20
11989;DHT22;6054;50.966;7.094;2022-09-28T09:41:50;17.90;56.60
11989;DHT22;6054;50.966;7.094;2022-09-28T09:44:35;17.80;56.40
11989;DHT22;6054;50.966;7.094;2022-09-28T09:47:06;17.80;56.30
11989;DHT22;6054;50.966;7.094;2022-09-28T09:49:38;17.80;56.20
11989;DHT22;6054;50.966;7.094;2022-09-28T09:52:10;17.90;56.20
11989;DHT22;6054;50.966;7.094;2022-09-28T09:54:43;17.80;56.30
11989;DHT22;6054;50.966;7.094;2022-09-28T09:57:14;17.90;56.30
11989;DHT22;6054;50.966;7.094;2022-09-28T09:59:44;17.90;56.40
11989;DHT22;6054;50.966;7.094;2022-09-28T10:02:21;17.90;56.30
11989;DHT22;6054;50.966;7.094;2022-09-28T10:04:50;18.00;56.40
11989;DHT22;6054;50.966;7.094;2022-09-28T10:07:22;18.00;55.90
11989;DHT22;6054;50.966;7.094;2022-09-28T10:09:54;18.00;55.90
11989;DHT22;6054;50.966;7.094;2022-09-28T10:12:22;18.00;55.60
11989;DHT22;6054;50.966;7.094;2022-09-28T10:14:51;18.00;55.20
11989;DHT22;6054;50.966;7.094;2022-09-28T10:17:20;18.00;54.50
11989;DHT22;6054;50.966;7.094;2022-09-28T10:19:52;18.00;54.10
11989;DHT22;6054;50.966;7.094;2022-09-28T10:22:23;18.10;54.80
11989;DHT22;6054;50.966;7.094;2022-09-28T10:24:53;18.10;54.10
11989;DHT22;6054;50.966;7.094;2022-09-28T10:27:24;18.00;53.60
11989;DHT22;6054;50.966;7.094;2022-09-28T10:29:56;18.10;53.70
11989;DHT22;6054;50.966;7.094;2022-09-28T10:32:26;18.10;53.50
11989;DHT22;6054;50.966;7.094;2022-09-28T10:35:11;18.10;53.30
11989;DHT22;6054;50.966;7.094;2022-09-28T10:37:47;18.10;53.30
11989;DHT22;6054;50.966;7.094;2022-09-28T10:40:27;18.10;53.30
11989;DHT22;6054;50.966;7.094;2022-09-28T10:43:02;18.10;53.20
11989;DHT22;6054;50.966;7.094;2022-09-28T10:45:34;18.10;53.10
11989;DHT22;6054;50.966;7.094;2022-09-28T10:48:04;18.20;53.10
11989;DHT22;6054;50.966;7.094;2022-09-28T10:50:32;18.40;53.50
11989;DHT22;6054;50.966;7.094;2022-09-28T10:53:11;18.30;52.50
11989;DHT22;6054;50.966;7.094;2022-09-28T10:55:38;18.50;53.20
11989;DHT22;6054;50.966;7.094;2022-09-28T10:58:24;18.50;53.00
11989;DHT22;6054;50.966;7.094;2022-09-28T11:00:58;18.60;52.70
11989;DHT22;6054;50.966;7.094;2022-09-28T11:03:28;18.60;52.60
11989;DHT22;6054;50.966;7.094;2022-09-28T11:05:58;18.70;52.20
11989;DHT22;6054;50.966;7.094;2022-09-28T11:08:28;18.80;52.00
11989;DHT22;6054;50.966;7.094;2022-09-28T11:11:04;18.80;52.10
11989;DHT22;6054;50.966;7.094;2022-09-28T11:13:41;18.80;52.00
11989;DHT22;6054;50.966;7.094;2022-09-28T11:16:21;18.90;51.90
11989;DHT22;6054;50.966;7.094;2022-09-28T11:18:48;18.90;51.20
11989;DHT22;6054;50.966;7.094;2022-09-28T11:21:17;19.20;50.50
11989;DHT22;6054;50.966;7.094;2022-09-28T11:23:59;19.10;50.20
11989;DHT22;6054;50.966;7.094;2022-09-28T11:26:34;19.10;50.00
11989;DHT22;6054;50.966;7.094;2022-09-28T11:29:02;19.10;49.90
11989;DHT22;6054;50.966;7.094;2022-09-28T11:31:30;19.10;49.70
11989;DHT22;6054;50.966;7.094;2022-09-28T11:34:05;19.40;49.30
11989;DHT22;6054;50.966;7.094;2022-09-28T11:36:49;19.20;49.50
11989;DHT22;6054;50.966;7.094;2022-09-28T11:39:23;19.20;49.40
11989;DHT22;6054;50.966;7.094;2022-09-28T11:42:00;19.30;49.60
11989;DHT22;6054;50.966;7.094;2022-09-28T11:44:38;19.20;49.80
11989;DHT22;6054;50.966;7.094;2022-09-28T11:50:19;19.40;50.10
11989;DHT22;6054;50.966;7.094;2022-09-28T11:52:54;19.40;50.00
11989;DHT22;6054;50.966;7.094;2022-09-28T11:55:28;19.40;49.80
11989;DHT22;6054;50.966;7.094;2022-09-28T11:58:07;19.40;49.60
11989;DHT22;6054;50.966;7.094;2022-09-28T12:00:39;19.40;49.40
11989;DHT22;6054;50.966;7.094;2022-09-28T12:03:13;19.70;49.80
11989;DHT22;6054;50.966;7.094;2022-09-28T12:05:46;19.40;49.40
11989;DHT22;6054;50.966;7.094;2022-09-28T12:08:18;19.50;49.20
11989;DHT22;6054;50.966;7.094;2022-09-28T12:10:54;19.50;49.20
11989;DHT22;6054;50.966;7.094;2022-09-28T12:13:26;19.40;48.80
11989;DHT22;6054;50.966;7.094;2022-09-28T12:15:57;19.50;49.00
11989;DHT22;6054;50.966;7.094;2022-09-28T12:18:28;19.60;49.20
11989;DHT22;6054;50.966;7.094;2022-09-28T12:21:21;19.50;49.10
11989;DHT22;6054;50.966;7.094;2022-09-28T12:23:54;19.60;49.40
11989;DHT22;6054;50.966;7.094;2022-09-28T12:26:27;19.60;49.50
11989;DHT22;6054;50.966;7.094;2022-09-28T12:29:00;19.60;49.70
11989;DHT22;6054;50.966;7.094;2022-09-28T12:31:32;19.60;49.50
11989;DHT22;6054;50.966;7.094;2022-09-28T12:34:01;19.70;49.80
11989;DHT22;6054;50.966;7.094;2022-09-28T12:36:40;19.80;49.70
11989;DHT22;6054;50.966;7.094;2022-09-28T12:39:18;19.70;50.20
11989;DHT22;6054;50.966;7.094;2022-09-28T12:41:57;19.90;50.10
11989;DHT22;6054;50.966;7.094;2022-09-28T12:44:40;19.70;49.60
11989;DHT22;6054;50.966;7.094;2022-09-28T12:47:34;19.80;49.80
11989;DHT22;6054;50.966;7.094;2022-09-28T12:50:14;19.80;49.80
11989;DHT22;6054;50.966;7.094;2022-09-28T12:52:54;19.90;49.90
11989;DHT22;6054;50.966;7.094;2022-09-28T12:55:33;19.90;49.70
11989;DHT22;6054;50.966;7.094;2022-09-28T12:58:11;19.90;49.80
11989;DHT22;6054;50.966;7.094;2022-09-28T13:00:48;19.90;49.70
11989;DHT22;6054;50.966;7.094;2022-09-28T13:03:51;19.90;49.00
11989;DHT22;6054;50.966;7.094;2022-09-28T13:06:24;20.00;48.80
11989;DHT22;6054;50.966;7.094;2022-09-28T13:09:05;20.00;48.80
11989;DHT22;6054;50.966;7.094;2022-09-28T13:11:40;20.00;48.40
11989;DHT22;6054;50.966;7.094;2022-09-28T13:17:35;20.00;48.00
11989;DHT22;6054;50.966;7.094;2022-09-28T13:20:14;20.00;48.10
11989;DHT22;6054;50.966;7.094;2022-09-28T13:22:48;20.10;48.20
11989;DHT22;6054;50.966;7.094;2022-09-28T13:25:24;20.10;47.90
11989;DHT22;6054;50.966;7.094;2022-09-28T13:27:55;20.10;47.60
11989;DHT22;6054;50.966;7.094;2022-09-28T13:30:24;20.10;47.50
11989;DHT22;6054;50.966;7.094;2022-09-28T13:32:53;20.20;47.20
11989;DHT22;6054;50.966;7.094;2022-09-28T13:35:21;20.30;47.90
11989;DHT22;6054;50.966;7.094;2022-09-28T13:41:15;20.30;47.60
11989;DHT22;6054;50.966;7.094;2022-09-28T13:43:54;20.30;47.40
11989;DHT22;6054;50.966;7.094;2022-09-28T13:46:28;20.30;47.50
11989;DHT22;6054;50.966;7.094;2022-09-28T13:49:04;20.30;47.20
11989;DHT22;6054;50.966;7.094;2022-09-28T13:51:44;20.50;47.50
11989;DHT22;6054;50.966;7.094;2022-09-28T13:57:17;20.60;47.60
11989;DHT22;6054;50.966;7.094;2022-09-28T13:59:56;20.40;47.50
11989;DHT22;6054;50.966;7.094;2022-09-28T14:02:31;20.40;47.30
11989;DHT22;6054;50.966;7.094;2022-09-28T14:05:02;20.60;47.20
11989;DHT22;6054;50.966;7.094;2022-09-28T14:07:54;20.30;46.50
11989;DHT22;6054;50.966;7.094;2022-09-28T14:10:22;20.30;46.90
11989;DHT22;6054;50.966;7.094;2022-09-28T14:12:52;20.30;47.40
11989;DHT22;6054;50.966;7.094;2022-09-28T14:15:39;20.20;48.00
11989;DHT22;6054;50.966;7.094;2022-09-28T14:18:13;20.20;48.50
11989;DHT22;6054;50.966;7.094;2022-09-28T14:20:54;20.20;49.00
11989;DHT22;6054;50.966;7.094;2022-09-28T14:23:36;20.30;49.60
11989;DHT22;6054;50.966;7.094;2022-09-28T14:26:46;20.10;49.90
11989;DHT22;6054;50.966;7.094;2022-09-28T14:29:24;20.20;50.40
11989;DHT22;6054;50.966;7.094;2022-09-28T14:31:56;20.40;50.50
11989;DHT22;6054;50.966;7.094;2022-09-28T14:34:31;20.20;50.60
11989;DHT22;6054;50.966;7.094;2022-09-28T14:37:01;20.20;50.70
11989;DHT22;6054;50.966;7.094;2022-09-28T14:39:47;20.30;50.60
11989;DHT22;6054;50.966;7.094;2022-09-28T14:42:32;20.30;50.60
11989;DHT22;6054;50.966;7.094;2022-09-28T14:45:31;20.40;50.30
11989;DHT22;6054;50.966;7.094;2022-09-28T14:48:14;20.40;50.10
11989;DHT22;6054;50.966;7.094;2022-09-28T14:50:43;20.40;50.10
11989;DHT22;6054;50.966;7.094;2022-09-28T14:53:12;20.50;49.70
11989;DHT22;6054;50.966;7.094;2022-09-28T14:55:45;20.50;50.40
11989;DHT22;6054;50.966;7.094;2022-09-28T14:58:18;20.50;50.60
11989;DHT22;6054;50.966;7.094;2022-09-28T15:00:51;20.40;50.70
11989;DHT22;6054;50.966;7.094;2022-09-28T15:03:20;20.40;50.70
11989;DHT22;6054;50.966;7.094;2022-09-28T15:05:48;20.40;50.70
11989;DHT22;6054;50.966;7.094;2022-09-28T15:08:18;20.40;50.60
11989;DHT22;6054;50.966;7.094;2022-09-28T15:10:47;20.40;51.10
11989;DHT22;6054;50.966;7.094;2022-09-28T15:13:20;20.40;51.10
11989;DHT22;6054;50.966;7.094;2022-09-28T15:15:54;20.30;51.20
11989;DHT22;6054;50.966;7.094;2022-09-28T15:21:36;20.10;52.30
11989;DHT22;6054;50.966;7.094;2022-09-28T15:24:22;20.10;52.90
11989;DHT22;6054;50.966;7.094;2022-09-28T15:26:49;19.80;53.50
11989;DHT22;6054;50.966;7.094;2022-09-28T15:29:17;19.70;53.40
11989;DHT22;6054;50.966;7.094;2022-09-28T15:31:45;19.70;54.00
11989;DHT22;6054;50.966;7.094;2022-09-28T15:34:26;19.60;53.90
11989;DHT22;6054;50.966;7.094;2022-09-28T15:37:23;19.60;54.60
11989;DHT22;6054;50.966;7.094;2022-09-28T15:39:53;19.50;54.60
11989;DHT22;6054;50.966;7.094;2022-09-28T15:42:20;19.40;54.60
11989;DHT22;6054;50.966;7.094;2022-09-28T15:45:10;19.60;54.60
11989;DHT22;6054;50.966;7.094;2022-09-28T15:47:54;19.40;55.40
11989;DHT22;6054;50.966;7.094;2022-09-28T15:50:25;19.40;55.50
11989;DHT22;6054;50.966;7.094;2022-09-28T15:52:55;19.30;55.40
11989;DHT22;6054;50.966;7.094;2022-09-28T15:55:28;19.30;55.80
11989;DHT22;6054;50.966;7.094;2022-09-28T15:58:13;19.20;55.90
11989;DHT22;6054;50.966;7.094;2022-09-28T16:00:42;19.20;56.30
11989;DHT22;6054;50.966;7.094;2022-09-28T16:03:21;19.20;56.30
11989;DHT22;6054;50.966;7.094;2022-09-28T16:05:50;19.20;56.50
11989;DHT22;6054;50.966;7.094;2022-09-28T16:08:19;19.20;56.40
11989;DHT22;6054;50.966;7.094;2022-09-28T16:10:58;19.20;56.40
11989;DHT22;6054;50.966;7.094;2022-09-28T16:13:28;19.20;56.40
11989;DHT22;6054;50.966;7.094;2022-09-28T16:15:56;19.20;56.10
11989;DHT22;6054;50.966;7.094;2022-09-28T16:18:26;19.40;56.70
11989;DHT22;6054;50.966;7.094;2022-09-28T16:21:21;19.20;56.60
11989;DHT22;6054;50.966;7.094;2022-09-28T16:23:49;19.10;56.60
11989;DHT22;6054;50.966;7.094;2022-09-28T16:26:27;19.20;56.90
11989;DHT22;6054;50.966;7.094;2022-09-28T16:28:55;19.10;56.80
11989;DHT22;6054;50.966;7.094;2022-09-28T16:31:27;19.10;56.40
11989;DHT22;6054;50.966;7.094;2022-09-28T16:34:07;19.10;57.00
11989;DHT22;6054;50.966;7.094;2022-09-28T16:36:41;19.10;57.00
11989;DHT22;6054;50.966;7.094;2022-09-28T16:39:10;19.10;57.20
11989;DHT22;6054;50.966;7.094;2022-09-28T16:41:38;19.00;57.40
11989;DHT22;6054;50.966;7.094;2022-09-28T16:44:13;19.00;57.30
11989;DHT22;6054;50.966;7.094;2022-09-28T16:46:42;19.00;57.10
11989;DHT22;6054;50.966;7.094;2022-09-28T16:49:14;19.00;56.70
11989;DHT22;6054;50.966;7.094;2022-09-28T16:51:44;19.00;56.70
11989;DHT22;6054;50.966;7.094;2022-09-28T16:54:14;18.90;56.30
11989;DHT22;6054;50.966;7.094;2022-09-28T16:56:59;18.90;56.20
11989;DHT22;6054;50.966;7.094;2022-09-28T16:59:26;18.80;56.00
11989;DHT22;6054;50.966;7.094;2022-09-28T17:01:53;18.70;55.90
11989;DHT22;6054;50.966;7.094;2022-09-28T17:04:22;18.70;56.30
11989;DHT22;6054;50.966;7.094;2022-09-28T17:06:50;18.60;57.30
11989;DHT22;6054;50.966;7.094;2022-09-28T17:09:18;18.60;56.90
11989;DHT22;6054;50.966;7.094;2022-09-28T17:11:45;18.60;57.00
11989;DHT22;6054;50.966;7.094;2022-09-28T17:14:12;18.60;56.80
11989;DHT22;6054;50.966;7.094;2022-09-28T17:16:39;18.70;57.10
11989;DHT22;6054;50.966;7.094;2022-09-28T17:19:15;18.60;57.10
11989;DHT22;6054;50.966;7.094;2022-09-28T17:21:44;18.60;57.60
11989;DHT22;6054;50.966;7.094;2022-09-28T17:24:11;18.70;57.60
11989;DHT22;6054;50.966;7.094;2022-09-28T17:26:39;18.70;57.30
11989;DHT22;6054;50.966;7.094;2022-09-28T17:29:09;18.70;57.50
11989;DHT22;6054;50.966;7.094;2022-09-28T17:31:39;18.70;57.60
11989;DHT22;6054;50.966;7.094;2022-09-28T17:34:06;18.70;57.60
11989;DHT22;6054;50.966;7.094;2022-09-28T17:36:33;18.70;57.20
11989;DHT22;6054;50.966;7.094;2022-09-28T17:39:01;18.70;57.00
11989;DHT22;6054;50.966;7.094;2022-09-28T17:41:28;18.70;56.90
11989;DHT22;6054;50.966;7.094;2022-09-28T17:43:54;18.70;57.10
11989;DHT22;6054;50.966;7.094;2022-09-28T17:46:26;18.70;56.90
11989;DHT22;6054;50.966;7.094;2022-09-28T17:48:54;18.70;57.30
11989;DHT22;6054;50.966;7.094;2022-09-28T17:51:22;18.70;57.10
11989;DHT22;6054;50.966;7.094;2022-09-28T17:53:48;18.70;57.00
11989;DHT22;6054;50.966;7.094;2022-09-28T17:56:17;18.60;56.60
11989;DHT22;6054;50.966;7.094;2022-09-28T17:58:43;18.60;56.60
11989;DHT22;6054;50.966;7.094;2022-09-28T18:01:12;18.60;56.40
11989;DHT22;6054;50.966;7.094;2022-09-28T18:03:39;18.80;56.80
11989;DHT22;6054;50.966;7.094;2022-09-28T18:06:10;18.60;56.50
11989;DHT22;6054;50.966;7.094;2022-09-28T18:08:39;18.50;57.30
11989;DHT22;6054;50.966;7.094;2022-09-28T18:11:06;18.50;56.40
11989;DHT22;6054;50.966;7.094;2022-09-28T18:13:34;18.40;56.30
11989;DHT22;6054;50.966;7.094;2022-09-28T18:16:02;18.40;56.40
11989;DHT22;6054;50.966;7.094;2022-09-28T18:18:29;18.40;56.40
11989;DHT22;6054;50.966;7.094;2022-09-28T18:20:59;18.50;56.20
11989;DHT22;6054;50.966;7.094;2022-09-28T18:23:26;18.40;56.70
11989;DHT22;6054;50.966;7.094;2022-09-28T18:25:52;18.30;56.00
11989;DHT22;6054;50.966;7.094;2022-09-28T18:28:19;18.30;56.00
11989;DHT22;6054;50.966;7.094;2022-09-28T18:30:48;18.40;56.40
11989;DHT22;6054;50.966;7.094;2022-09-28T18:33:16;18.50;56.10
11989;DHT22;6054;50.966;7.094;2022-09-28T18:35:49;18.40;56.10
11989;DHT22;6054;50.966;7.094;2022-09-28T18:38:16;18.50;56.50
11989;DHT22;6054;50.966;7.094;2022-09-28T18:40:43;18.50;56.20
11989;DHT22;6054;50.966;7.094;2022-09-28T18:43:10;18.30;55.90
11989;DHT22;6054;50.966;7.094;2022-09-28T18:45:37;18.30;56.00
11989;DHT22;6054;50.966;7.094;2022-09-28T18:48:06;18.40;56.90
11989;DHT22;6054;50.966;7.094;2022-09-28T18:50:33;18.30;56.60
11989;DHT22;6054;50.966;7.094;2022-09-28T18:53:00;18.50;56.40
11989;DHT22;6054;50.966;7.094;2022-09-28T18:55:36;18.20;56.40
11989;DHT22;6054;50.966;7.094;2022-09-28T18:58:03;18.40;56.50
11989;DHT22;6054;50.966;7.094;2022-09-28T19:00:30;18.20;56.50
11989;DHT22;6054;50.966;7.094;2022-09-28T19:02:57;18.20;56.20
11989;DHT22;6054;50.966;7.094;2022-09-28T19:05:25;18.20;55.90
11989;DHT22;6054;50.966;7.094;2022-09-28T19:07:53;18.50;56.30
11989;DHT22;6054;50.966;7.094;2022-09-28T19:10:20;18.20;56.60
11989;DHT22;6054;50.966;7.094;2022-09-28T19:12:47;18.20;56.00
11989;DHT22;6054;50.966;7.094;2022-09-28T19:15:16;18.10;55.50
11989;DHT22;6054;50.966;7.094;2022-09-28T19:17:44;18.40;57.00
11989;DHT22;6054;50.966;7.094;2022-09-28T19:20:12;18.20;56.40
11989;DHT22;6054;50.966;7.094;2022-09-28T19:22:40;18.20;56.50
11989;DHT22;6054;50.966;7.094;2022-09-28T19:25:07;18.20;55.90
11989;DHT22;6054;50.966;7.094;2022-09-28T19:27:34;18.20;56.00
11989;DHT22;6054;50.966;7.094;2022-09-28T19:30:02;18.10;55.60
11989;DHT22;6054;50.966;7.094;2022-09-28T19:32:28;18.20;56.00
11989;DHT22;6054;50.966;7.094;2022-09-28T19:34:55;18.10;55.90
11989;DHT22;6054;50.966;7.094;2022-09-28T19:37:22;18.00;55.70
11989;DHT22;6054;50.966;7.094;2022-09-28T19:39:50;18.00;55.70
11989;DHT22;6054;50.966;7.094;2022-09-28T19:42:17;18.00;55.70
11989;DHT22;6054;50.966;7.094;2022-09-28T19:44:44;18.30;55.90
11989;DHT22;6054;50.966;7.094;2022-09-28T19:47:11;18.00;55.40
11989;DHT22;6054;50.966;7.094;2022-09-28T19:54:35;18.00;56.50
11989;DHT22;6054;50.966;7.094;2022-09-28T19:57:04;17.90;55.70
11989;DHT22;6054;50.966;7.094;2022-09-28T19:59:33;18.10;56.30
11989;DHT22;6054;50.966;7.094;2022-09-28T20:02:00;17.90;55.00
11989;DHT22;6054;50.966;7.094;2022-09-28T20:04:27;17.90;55.80
11989;DHT22;6054;50.966;7.094;2022-09-28T20:06:54;17.90;55.40
11989;DHT22;6054;50.966;7.094;2022-09-28T20:09:21;17.90;55.90
11989;DHT22;6054;50.966;7.094;2022-09-28T20:11:47;17.90;55.80
11989;DHT22;6054;50.966;7.094;2022-09-28T20:14:17;17.90;55.90
11989;DHT22;6054;50.966;7.094;2022-09-28T20:16:44;17.90;56.00
11989;DHT22;6054;50.966;7.094;2022-09-28T20:19:11;17.90;56.30
11989;DHT22;6054;50.966;7.094;2022-09-28T20:21:38;17.90;55.80
11989;DHT22;6054;50.966;7.094;2022-09-28T20:24:05;17.90;55.70
11989;DHT22;6054;50.966;7.094;2022-09-28T20:26:32;17.90;55.80
11989;DHT22;6054;50.966;7.094;2022-09-28T20:29:02;17.90;56.20
11989;DHT22;6054;50.966;7.094;2022-09-28T20:31:30;17.80;56.30
11989;DHT22;6054;50.966;7.094;2022-09-28T20:33:57;17.80;55.30
11989;DHT22;6054;50.966;7.094;2022-09-28T20:36:24;17.80;55.70
11989;DHT22;6054;50.966;7.094;2022-09-28T20:38:52;18.00;55.60
11989;DHT22;6054;50.966;7.094;2022-09-28T20:41:21;17.90;56.50
11989;DHT22;6054;50.966;7.094;2022-09-28T20:43:50;17.90;56.40
11989;DHT22;6054;50.966;7.094;2022-09-28T20:46:17;17.80;56.30
11989;DHT22;6054;50.966;7.094;2022-09-28T20:48:48;17.90;56.10
11989;DHT22;6054;50.966;7.094;2022-09-28T20:51:17;17.90;56.10
11989;DHT22;6054;50.966;7.094;2022-09-28T20:53:47;17.80;56.10
11989;DHT22;6054;50.966;7.094;2022-09-28T20:56:17;17.80;56.00
11989;DHT22;6054;50.966;7.094;2022-09-28T20:58:45;17.80;56.00
11989;DHT22;6054;50.966;7.094;2022-09-28T21:01:13;17.80;56.10
11989;DHT22;6054;50.966;7.094;2022-09-28T21:03:44;17.80;56.00
11989;DHT22;6054;50.966;7.094;2022-09-28T21:06:14;17.80;56.20
11989;DHT22;6054;50.966;7.094;2022-09-28T21:08:41;17.80;56.40
11989;DHT22;6054;50.966;7.094;2022-09-28T21:11:08;17.80;56.20
11989;DHT22;6054;50.966;7.094;2022-09-28T21:13:35;17.80;55.50
11989;DHT22;6054;50.966;7.094;2022-09-28T21:16:02;18.10;56.20
11989;DHT22;6054;50.966;7.094;2022-09-28T21:18:29;17.80;56.60
11989;DHT22;6054;50.966;7.094;2022-09-28T21:20:56;17.80;55.90
11989;DHT22;6054;50.966;7.094;2022-09-28T21:23:24;17.80;55.80
11989;DHT22;6054;50.966;7.094;2022-09-28T21:26:00;18.10;56.20
11989;DHT22;6054;50.966;7.094;2022-09-28T21:28:27;18.00;56.80
11989;DHT22;6054;50.966;7.094;2022-09-28T21:30:54;17.80;55.90
11989;DHT22;6054;50.966;7.094;2022-09-28T21:33:20;17.80;56.00
11989;DHT22;6054;50.966;7.094;2022-09-28T21:35:47;17.80;56.20
11989;DHT22;6054;50.966;7.094;2022-09-28T21:38:14;17.80;55.90
11989;DHT22;6054;50.966;7.094;2022-09-28T21:40:42;17.80;55.90
11989;DHT22;6054;50.966;7.094;2022-09-28T21:43:09;17.80;55.90
11989;DHT22;6054;50.966;7.094;2022-09-28T21:45:36;17.90;56.20
11989;DHT22;6054;50.966;7.094;2022-09-28T21:48:04;18.00;56.40
11989;DHT22;6054;50.966;7.094;2022-09-28T21:50:31;17.70;55.90
11989;DHT22;6054;50.966;7.094;2022-09-28T21:52:57;17.70;55.90
11989;DHT22;6054;50.966;7.094;2022-09-28T21:55:24;18.00;56.30
11989;DHT22;6054;50.966;7.094;2022-09-28T21:57:52;17.70;56.10
11989;DHT22;6054;50.966;7.094;2022-09-28T22:00:20;17.90;55.90
11989;DHT22;6054;50.966;7.094;2022-09-28T22:02:47;17.80;56.30
11989;DHT22;6054;50.966;7.094;2022-09-28T22:05:14;17.70;55.80
11989;DHT22;6054;50.966;7.094;2022-09-28T22:07:41;17.80;55.70
11989;DHT22;6054;50.966;7.094;2022-09-28T22:10:12;18.00;56.30